TVQ YMNG-YMNG
Flight info
| Callsign | TVQ |
|---|---|
| Flight time | N/A |
| Altitude | 5000 |
| Route | MNG W481 LACEY W188 COLDS/N0140A030 V512 MOSVO DCT ESDAN DCT ML/N0140A050 DCT MNG/N0140A030 W477 SHT/N0140A040 W477 MNG |
| Aircraft | PA44/L-SDGRY/S |
Departure
| Time | 2026-04-18 03:03 |
|---|---|
| Airport | Mangalore Airport (YMNG) |
Arrival
| Time | N/A |
|---|---|
| Airport | Mangalore Airport (YMNG) |
| Time | Latitude | Longitude | Altitude | Speed | Heading |
|---|---|---|---|---|---|
| 2026-04-18 02:43 | -36.89030 | 145.18376 | 465 ft | 0 kts | 66° |
| 2026-04-18 02:52 | -36.89030 | 145.18377 | 466 ft | 0 kts | 67° |
| 2026-04-18 02:52 | -36.89029 | 145.18380 | 466 ft | 6 kts | 58° |
| 2026-04-18 02:52 | -36.88964 | 145.18418 | 465 ft | 13 kts | 349° |
| 2026-04-18 02:52 | -36.88872 | 145.18350 | 465 ft | 13 kts | 323° |
| 2026-04-18 02:53 | -36.88843 | 145.18326 | 464 ft | 0 kts | 329° |
| 2026-04-18 02:53 | -36.88843 | 145.18325 | 464 ft | 0 kts | 328° |
| 2026-04-18 03:00 | -36.88839 | 145.18322 | 464 ft | 2 kts | 325° |
| 2026-04-18 03:00 | -36.88789 | 145.18289 | 463 ft | 14 kts | 358° |
| 2026-04-18 03:00 | -36.88756 | 145.18306 | 462 ft | 19 kts | 40° |
| 2026-04-18 03:00 | -36.88687 | 145.18422 | 461 ft | 26 kts | 54° |
| 2026-04-18 03:01 | -36.88563 | 145.18623 | 462 ft | 33 kts | 50° |
| 2026-04-18 03:01 | -36.88427 | 145.18862 | 467 ft | 33 kts | 50° |
| 2026-04-18 03:01 | -36.88295 | 145.18980 | 468 ft | 16 kts | 343° |
| 2026-04-18 03:01 | -36.88302 | 145.18991 | 468 ft | 6 kts | 189° |
| 2026-04-18 03:02 | -36.88317 | 145.18988 | 468 ft | 16 kts | 189° |
| 2026-04-18 03:02 | -36.88661 | 145.18918 | 473 ft | 77 kts | 188° |
| 2026-04-18 03:02 | -36.89181 | 145.18811 | 674 ft | 96 kts | 188° |
| 2026-04-18 03:03 | -36.89709 | 145.18696 | 915 ft | 103 kts | 188° |
| 2026-04-18 03:03 | -36.90422 | 145.18499 | 1334 ft | 107 kts | 201° |
| 2026-04-18 03:03 | -36.90925 | 145.17800 | 1770 ft | 114 kts | 243° |
| 2026-04-18 03:03 | -36.90922 | 145.16790 | 2201 ft | 127 kts | 284° |
| 2026-04-18 03:04 | -36.90279 | 145.15983 | 2638 ft | 138 kts | 335° |
| 2026-04-18 03:04 | -36.89298 | 145.15924 | 2966 ft | 146 kts | 19° |
| 2026-04-18 03:04 | -36.88604 | 145.16747 | 3304 ft | 141 kts | 74° |
| 2026-04-18 03:04 | -36.88498 | 145.17891 | 3737 ft | 128 kts | 103° |
| 2026-04-18 03:05 | -36.88798 | 145.18881 | 4058 ft | 120 kts | 127° |
| 2026-04-18 03:05 | -36.89377 | 145.19649 | 4260 ft | 120 kts | 148° |
| 2026-04-18 03:05 | -36.90102 | 145.20117 | 4533 ft | 118 kts | 161° |
| 2026-04-18 03:05 | -36.90873 | 145.20458 | 4818 ft | 117 kts | 163° |
| 2026-04-18 03:06 | -36.91656 | 145.20820 | 4974 ft | 127 kts | 162° |